Time;durP1;ratioP1;P1;durP2;ratioP2;P2;SDS_P1;SDS_P2;PMS_P1;PMS_P2;Temp;Humidity;BMP_temperature;BMP_pressure;BME280_temperature;BME280_humidity;BME280_pressure;Samples;Min_cycle;Max_cycle;Signal;HPM_P1;HPM_P2
2021/07/08 00:00:39;;;;;;;0.30;0.30;;;15.40;99.90;;;;;;2088597;28;20180;-71
2021/07/08 00:01:43;;;;;;;0.47;0.47;;;15.40;99.90;;;;;;2083616;28;20187;-71
2021/07/08 00:02:44;;;;;;;0.30;0.30;;;15.30;99.90;;;;;;2081332;28;20221;-70
2021/07/08 00:03:46;;;;;;;0.50;0.50;;;15.30;99.90;;;;;;2080677;28;20191;-71
2021/07/08 00:04:46;;;;;;;0.77;0.60;;;15.30;99.90;;;;;;2089092;28;20199;-71
2021/07/08 00:05:47;;;;;;;0.40;0.40;;;15.30;99.90;;;;;;2089323;28;20778;-71
2021/07/08 00:06:48;;;;;;;0.27;0.27;;;15.30;99.90;;;;;;2098663;23;20221;-76
2021/07/08 00:07:49;;;;;;;0.40;0.40;;;15.30;99.90;;;;;;2064535;28;20253;-75
2021/07/08 00:08:50;;;;;;;0.50;0.50;;;15.30;99.90;;;;;;2064567;28;20178;-75
2021/07/08 00:09:50;;;;;;;0.30;0.30;;;15.30;99.90;;;;;;2064686;28;20611;-75
2021/07/08 00:10:55;;;;;;;0.70;0.70;;;15.30;99.90;;;;;;2064435;28;20174;-75
2021/07/08 00:11:56;;;;;;;0.40;0.40;;;15.30;99.90;;;;;;2064071;28;20197;-76
2021/07/08 00:12:59;;;;;;;0.33;0.33;;;15.40;99.90;;;;;;2055825;28;20189;-75
2021/07/08 00:14:00;;;;;;;0.30;0.30;;;15.30;99.90;;;;;;2064441;28;20187;-75
2021/07/08 00:15:03;;;;;;;1.63;0.40;;;15.30;99.90;;;;;;2055828;28;20191;-75
2021/07/08 00:16:04;;;;;;;0.50;0.50;;;15.30;99.90;;;;;;2048740;28;20614;-76
2021/07/08 00:17:06;;;;;;;0.30;0.30;;;15.20;99.90;;;;;;2071542;28;20237;-75
2021/07/08 00:18:10;;;;;;;1.90;0.60;;;15.20;99.90;;;;;;2072301;28;20192;-75
2021/07/08 00:19:11;;;;;;;0.50;0.50;;;15.10;99.90;;;;;;2064082;28;20175;-75
2021/07/08 00:20:17;;;;;;;0.30;0.30;;;15.10;99.90;;;;;;2063994;28;20209;-75
2021/07/08 00:21:20;;;;;;;0.50;0.50;;;15.10;99.90;;;;;;2080209;28;20674;-75
2021/07/08 00:22:21;;;;;;;0.40;0.40;;;15.10;99.90;;;;;;2080138;28;20188;-75
2021/07/08 00:23:23;;;;;;;0.30;0.30;;;15.10;99.90;;;;;;2064075;28;20248;-76
2021/07/08 00:24:24;;;;;;;0.40;0.40;;;15.10;99.90;;;;;;2064143;28;20190;-75
2021/07/08 00:25:28;;;;;;;0.37;0.37;;;15.10;99.90;;;;;;2063201;28;20313;-76
2021/07/08 00:26:29;;;;;;;0.35;0.35;;;15.10;99.90;;;;;;2065091;28;20208;-75
2021/07/08 00:27:29;;;;;;;0.60;0.60;;;15.10;99.90;;;;;;2055872;28;20848;-75
2021/07/08 00:28:31;;;;;;;0.50;0.50;;;15.10;99.90;;;;;;2048046;29;20187;-75
2021/07/08 00:29:31;;;;;;;0.35;0.35;;;15.10;99.90;;;;;;2063988;28;20189;-75
2021/07/08 00:30:33;;;;;;;0.50;0.50;;;15.10;99.90;;;;;;2072605;28;20261;-76
2021/07/08 00:31:33;;;;;;;0.73;0.73;;;15.10;99.90;;;;;;2072693;28;20174;-75
2021/07/08 00:32:35;;;;;;;3.30;0.87;;;15.10;99.90;;;;;;2072652;28;20257;-76
2021/07/08 00:33:37;;;;;;;0.60;0.60;;;15.10;99.90;;;;;;2072700;28;20179;-75
2021/07/08 00:34:37;;;;;;;0.73;0.73;;;15.10;99.90;;;;;;2056272;28;20266;-75
2021/07/08 00:35:39;;;;;;;0.47;0.47;;;15.10;99.90;;;;;;2055774;28;20190;-75
2021/07/08 00:36:40;;;;;;;0.60;0.60;;;15.00;99.90;;;;;;2063997;28;20672;-75
2021/07/08 00:37:41;;;;;;;0.40;0.40;;;15.00;99.90;;;;;;2071899;28;20229;-75
2021/07/08 00:38:41;;;;;;;0.30;0.30;;;15.00;99.90;;;;;;2072730;28;20624;-75
2021/07/08 00:39:42;;;;;;;0.70;0.70;;;15.00;99.90;;;;;;2072567;28;20670;-75
2021/07/08 00:40:43;;;;;;;0.30;0.30;;;15.00;99.90;;;;;;2063965;28;20178;-75
2021/07/08 00:41:44;;;;;;;0.43;0.43;;;15.00;99.90;;;;;;2064002;28;20550;-75
2021/07/08 00:42:45;;;;;;;0.50;0.50;;;15.00;99.90;;;;;;2064168;28;20205;-75
2021/07/08 00:43:50;;;;;;;0.40;0.40;;;14.90;99.90;;;;;;2056006;28;20183;-75
2021/07/08 00:44:51;;;;;;;0.40;0.40;;;14.90;99.90;;;;;;2064687;28;20155;-75
2021/07/08 00:45:51;;;;;;;0.40;0.40;;;14.90;99.90;;;;;;2063848;28;20691;-75
2021/07/08 00:46:52;;;;;;;0.50;0.50;;;15.00;99.90;;;;;;2071859;28;20240;-75
2021/07/08 00:47:54;;;;;;;0.30;0.30;;;15.00;99.90;;;;;;2071998;28;20208;-74
2021/07/08 00:48:54;;;;;;;0.50;0.50;;;15.00;99.90;;;;;;2064020;28;20198;-75
2021/07/08 00:49:56;;;;;;;0.70;0.70;;;15.00;99.90;;;;;;2072002;28;20182;-75
2021/07/08 00:50:56;;;;;;;0.70;0.70;;;15.00;99.90;;;;;;2071856;28;20174;-75
2021/07/08 00:51:57;;;;;;;0.40;0.40;;;15.00;99.90;;;;;;2072830;28;20177;-76
2021/07/08 00:52:58;;;;;;;0.40;0.40;;;15.00;99.90;;;;;;2072641;28;20174;-76
2021/07/08 00:53:59;;;;;;;0.38;0.38;;;15.00;99.90;;;;;;2063831;28;20439;-75
2021/07/08 00:55:00;;;;;;;0.40;0.40;;;15.00;99.90;;;;;;2063804;28;20182;-75
2021/07/08 00:56:05;;;;;;;0.73;0.73;;;15.00;99.90;;;;;;2063946;28;20237;-75
2021/07/08 00:57:06;;;;;;;0.30;0.30;;;15.00;99.90;;;;;;2064256;28;20256;-75
2021/07/08 00:58:09;;;;;;;0.33;0.33;;;15.00;99.90;;;;;;2072675;28;20598;-75
2021/07/08 00:59:13;;;;;;;0.40;0.40;;;15.00;99.90;;;;;;2072378;28;20424;-75
2021/07/08 01:00:14;;;;;;;0.40;0.40;;;15.00;99.90;;;;;;2055572;28;20653;-75
2021/07/08 01:01:14;;;;;;;0.50;0.50;;;15.00;99.90;;;;;;2048101;28;20271;-75
2021/07/08 01:02:15;;;;;;;0.33;0.33;;;15.00;99.90;;;;;;2063965;28;20768;-75
2021/07/08 01:03:17;;;;;;;0.50;0.50;;;15.00;99.90;;;;;;2072438;28;20173;-74
2021/07/08 01:04:18;;;;;;;0.45;0.45;;;15.00;99.90;;;;;;2066620;28;20196;-75
2021/07/08 01:05:27;;;;;;;0.70;0.70;;;15.00;99.90;;;;;;2071647;28;20216;-76
2021/07/08 01:06:29;;;;;;;0.63;0.63;;;15.00;99.90;;;;;;2071792;28;20186;-75
2021/07/08 01:07:30;;;;;;;0.45;0.45;;;15.10;99.90;;;;;;2063580;28;20239;-75
2021/07/08 01:08:31;;;;;;;0.50;0.50;;;15.10;99.90;;;;;;2063901;28;20201;-75
2021/07/08 01:09:32;;;;;;;0.30;0.30;;;15.10;99.90;;;;;;2072422;28;20227;-75
2021/07/08 01:10:33;;;;;;;0.50;0.50;;;15.10;99.90;;;;;;2072231;28;20196;-75
2021/07/08 01:11:33;;;;;;;0.40;0.40;;;15.10;99.90;;;;;;2072331;28;20184;-75
2021/07/08 01:12:34;;;;;;;0.63;0.63;;;15.10;99.90;;;;;;2080116;28;20727;-75
2021/07/08 01:13:35;;;;;;;2.47;0.70;;;15.10;99.90;;;;;;2080029;28;20169;-75
2021/07/08 01:14:36;;;;;;;0.37;0.37;;;15.10;99.90;;;;;;2072548;28;20637;-75
2021/07/08 01:15:37;;;;;;;0.57;0.57;;;15.10;99.90;;;;;;2071712;28;20196;-75
2021/07/08 01:16:37;;;;;;;0.63;0.63;;;15.10;99.90;;;;;;2055815;28;20238;-75
2021/07/08 01:17:39;;;;;;;0.40;0.40;;;15.10;99.90;;;;;;2063708;28;20170;-75
2021/07/08 01:18:41;;;;;;;0.40;0.40;;;15.10;99.90;;;;;;2047867;28;20183;-75
2021/07/08 01:19:42;;;;;;;0.30;0.30;;;15.10;99.90;;;;;;2055774;28;20187;-75
2021/07/08 01:20:44;;;;;;;0.65;0.65;;;15.10;99.90;;;;;;2063435;28;20755;-76
2021/07/08 01:21:45;;;;;;;0.50;0.50;;;15.10;99.90;;;;;;2063824;28;20182;-75
2021/07/08 01:22:49;;;;;;;0.40;0.40;;;15.10;99.90;;;;;;2071895;28;20670;-75
2021/07/08 01:23:50;;;;;;;0.30;0.30;;;15.20;99.90;;;;;;2063719;28;20418;-75
2021/07/08 01:24:51;;;;;;;0.37;0.37;;;15.10;99.90;;;;;;2056141;28;20287;-75
2021/07/08 01:25:52;;;;;;;0.60;0.60;;;15.10;99.90;;;;;;2063673;28;20304;-75
2021/07/08 01:26:54;;;;;;;0.30;0.30;;;15.10;99.90;;;;;;2063571;28;20205;-75
2021/07/08 01:27:56;;;;;;;0.50;0.50;;;15.00;99.90;;;;;;2055729;28;20183;-75
2021/07/08 01:28:58;;;;;;;0.60;0.60;;;15.00;99.90;;;;;;2064048;28;20197;-75
2021/07/08 01:29:59;;;;;;;0.65;0.65;;;15.00;99.90;;;;;;2079822;28;20271;-76
2021/07/08 01:30:59;;;;;;;0.55;0.52;;;15.00;99.90;;;;;;2079731;28;20209;-75
2021/07/08 01:32:00;;;;;;;0.37;0.37;;;15.00;99.90;;;;;;2063504;28;20179;-75
2021/07/08 01:33:07;;;;;;;0.40;0.40;;;15.00;99.90;;;;;;2063679;28;20210;-75
2021/07/08 01:34:07;;;;;;;0.30;0.30;;;15.00;99.90;;;;;;2064427;28;20758;-75
2021/07/08 01:35:10;;;;;;;0.40;0.40;;;15.00;99.90;;;;;;2079967;28;20477;-75
2021/07/08 01:36:12;;;;;;;0.40;0.40;;;15.00;99.90;;;;;;2071370;28;20193;-75
2021/07/08 01:37:14;;;;;;;0.30;0.30;;;15.00;99.90;;;;;;2072781;28;20490;-75
2021/07/08 01:38:15;;;;;;;0.32;0.32;;;15.00;99.90;;;;;;2072961;28;20751;-75
2021/07/08 01:39:17;;;;;;;0.30;0.30;;;15.00;99.90;;;;;;2065451;28;20186;-75
2021/07/08 01:40:19;;;;;;;0.50;0.50;;;15.00;99.90;;;;;;2056779;28;20187;-75
2021/07/08 01:41:20;;;;;;;0.60;0.60;;;15.00;99.90;;;;;;2065683;28;20202;-75
2021/07/08 01:42:21;;;;;;;0.30;0.30;;;15.00;99.90;;;;;;2073147;28;20436;-75
2021/07/08 01:43:21;;;;;;;0.40;0.40;;;15.00;99.90;;;;;;2065178;28;20708;-75
2021/07/08 01:44:22;;;;;;;0.73;0.60;;;15.00;99.90;;;;;;2073794;28;20212;-75
2021/07/08 01:45:23;;;;;;;0.30;0.30;;;15.00;99.90;;;;;;2081418;28;20268;-75
2021/07/08 01:46:24;;;;;;;0.55;0.55;;;15.00;99.90;;;;;;2072882;28;20177;-75
2021/07/08 01:47:25;;;;;;;0.57;0.57;;;15.10;99.90;;;;;;2073284;28;20202;-76
2021/07/08 01:48:26;;;;;;;0.37;0.37;;;15.00;99.90;;;;;;2073036;28;20641;-75
2021/07/08 01:49:27;;;;;;;0.50;0.50;;;15.00;99.90;;;;;;2065194;28;20198;-75
2021/07/08 01:50:27;;;;;;;0.50;0.50;;;15.00;99.90;;;;;;2073605;28;20227;-75
2021/07/08 01:51:32;;;;;;;0.97;0.83;;;15.00;99.90;;;;;;2073281;28;20688;-74
2021/07/08 01:52:34;;;;;;;1.00;0.87;;;14.90;99.90;;;;;;2056870;28;20207;-75
2021/07/08 01:53:34;;;;;;;1.45;0.57;;;15.00;99.90;;;;;;2057069;28;20418;-75
2021/07/08 01:54:35;;;;;;;0.40;0.40;;;15.00;99.90;;;;;;2081310;28;20208;-76
2021/07/08 01:55:36;;;;;;;0.30;0.30;;;15.00;99.90;;;;;;2073172;28;20177;-75
2021/07/08 01:56:38;;;;;;;0.50;0.50;;;15.00;99.90;;;;;;2073043;28;20280;-75
2021/07/08 01:57:44;;;;;;;0.50;0.50;;;15.00;99.90;;;;;;2072981;28;20170;-76
2021/07/08 01:58:46;;;;;;;1.70;0.40;;;15.00;99.90;;;;;;2065721;28;20163;-76
2021/07/08 01:59:47;;;;;;;0.60;0.60;;;15.00;99.90;;;;;;2081308;28;20181;-74
2021/07/08 02:00:48;;;;;;;0.40;0.40;;;15.00;99.90;;;;;;2072953;28;20248;-76
2021/07/08 02:01:48;;;;;;;0.37;0.37;;;14.90;99.90;;;;;;2065015;28;20196;-75
2021/07/08 02:02:51;;;;;;;0.37;0.37;;;15.00;99.90;;;;;;2081385;28;20259;-76
2021/07/08 02:03:52;;;;;;;0.30;0.30;;;15.00;99.90;;;;;;2072770;28;20170;-75
2021/07/08 02:04:52;;;;;;;0.37;0.37;;;14.90;99.90;;;;;;2056957;28;20175;-74
2021/07/08 02:05:53;;;;;;;0.70;0.70;;;15.00;99.90;;;;;;2064850;28;20641;-76
2021/07/08 02:06:54;;;;;;;0.50;0.50;;;15.00;99.90;;;;;;2081092;28;20208;-76
2021/07/08 02:07:54;;;;;;;0.40;0.40;;;15.00;99.90;;;;;;2072951;28;20177;-75
2021/07/08 02:08:55;;;;;;;0.57;0.57;;;15.00;99.90;;;;;;2064892;28;20193;-76
2021/07/08 02:09:56;;;;;;;0.50;0.50;;;15.00;99.90;;;;;;2081120;28;20173;-75
2021/07/08 02:10:56;;;;;;;0.40;0.40;;;15.10;99.90;;;;;;2081115;28;20196;-75
2021/07/08 02:12:01;;;;;;;0.30;0.30;;;15.00;99.90;;;;;;2081279;28;20596;-76
2021/07/08 02:13:02;;;;;;;0.52;0.52;;;15.00;99.90;;;;;;2072617;28;20553;-75
2021/07/08 02:14:04;;;;;;;0.50;0.50;;;15.00;99.90;;;;;;2065107;28;20201;-76
2021/07/08 02:15:07;;;;;;;0.80;0.80;;;15.00;99.90;;;;;;2064940;28;20657;-75
2021/07/08 02:16:10;;;;;;;0.55;0.55;;;14.90;99.90;;;;;;2065305;28;20182;-75
2021/07/08 02:17:11;;;;;;;0.40;0.40;;;14.90;99.90;;;;;;2065069;28;20206;-75
2021/07/08 02:18:12;;;;;;;0.30;0.30;;;14.90;99.90;;;;;;2056977;28;20262;-75
2021/07/08 02:19:13;;;;;;;0.60;0.60;;;14.90;99.90;;;;;;2065041;28;20213;-75
2021/07/08 02:20:16;;;;;;;0.55;0.55;;;15.00;99.90;;;;;;2064606;28;20182;-74
2021/07/08 02:21:17;;;;;;;0.30;0.30;;;14.90;99.90;;;;;;2065282;28;20597;-76
2021/07/08 02:22:17;;;;;;;0.30;0.30;;;14.90;99.90;;;;;;2081146;28;20207;-75
2021/07/08 02:23:18;;;;;;;0.60;0.60;;;14.90;99.90;;;;;;2073157;28;20645;-75
2021/07/08 02:24:19;;;;;;;0.73;0.50;;;14.90;99.90;;;;;;2064937;28;20194;-74
2021/07/08 02:25:20;;;;;;;1.07;0.70;;;14.90;99.90;;;;;;2081198;28;20268;-75
2021/07/08 02:26:20;;;;;;;0.30;0.30;;;14.90;99.90;;;;;;2081037;28;20358;-75
2021/07/08 02:27:21;;;;;;;0.50;0.50;;;15.00;99.90;;;;;;2073810;28;20186;-75
2021/07/08 02:28:22;;;;;;;0.87;0.70;;;15.00;99.90;;;;;;2081208;28;20674;-75
2021/07/08 02:29:22;;;;;;;0.80;0.80;;;15.00;99.90;;;;;;2081249;28;20185;-75
2021/07/08 02:30:25;;;;;;;1.73;1.00;;;15.00;99.90;;;;;;2073385;28;20264;-75
2021/07/08 02:31:26;;;;;;;3.05;1.30;;;15.00;99.90;;;;;;2081242;28;20181;-75
2021/07/08 02:32:27;;;;;;;0.30;0.30;;;15.00;99.90;;;;;;2081128;28;20181;-75
2021/07/08 02:33:28;;;;;;;0.57;0.57;;;15.10;99.90;;;;;;2081239;28;20264;-76
2021/07/08 02:34:29;;;;;;;0.47;0.47;;;15.10;99.90;;;;;;2072899;28;20602;-75
2021/07/08 02:35:30;;;;;;;0.40;0.40;;;15.10;99.90;;;;;;2064977;28;20199;-75
2021/07/08 02:36:30;;;;;;;0.50;0.50;;;15.10;99.90;;;;;;2064596;28;20262;-75
2021/07/08 02:37:31;;;;;;;1.30;0.63;;;15.20;99.90;;;;;;2064899;28;20186;-75
2021/07/08 02:38:33;;;;;;;0.32;0.32;;;15.10;99.90;;;;;;2072800;28;20189;-76
2021/07/08 02:39:35;;;;;;;0.52;0.52;;;15.10;99.90;;;;;;2064823;28;20668;-76
2021/07/08 02:40:40;;;;;;;0.65;0.65;;;15.10;99.90;;;;;;2064643;28;20178;-75
2021/07/08 02:41:41;;;;;;;0.70;0.70;;;15.10;99.90;;;;;;2064790;28;20181;-75
2021/07/08 02:42:48;;;;;;;0.70;0.70;;;15.10;99.90;;;;;;2065173;28;20575;-75
2021/07/08 02:43:50;;;;;;;0.40;0.40;;;15.10;99.90;;;;;;2064891;28;20637;-75
2021/07/08 02:44:51;;;;;;;0.52;0.50;;;15.10;99.90;;;;;;2065591;28;20186;-75
2021/07/08 02:45:51;;;;;;;0.73;0.70;;;15.10;99.90;;;;;;2064676;28;20744;-75
2021/07/08 02:46:52;;;;;;;0.30;0.30;;;15.10;99.90;;;;;;2064503;28;20245;-76
2021/07/08 02:47:54;;;;;;;0.90;0.90;;;15.10;99.90;;;;;;2064506;28;20182;-75
2021/07/08 02:48:56;;;;;;;0.70;0.65;;;15.20;99.90;;;;;;2055960;28;20264;-75
2021/07/08 02:49:57;;;;;;;0.30;0.30;;;15.20;99.90;;;;;;2056757;28;20550;-75
2021/07/08 02:50:58;;;;;;;0.45;0.45;;;15.20;99.90;;;;;;2064460;28;20182;-75
2021/07/08 02:51:58;;;;;;;0.60;0.60;;;15.20;99.90;;;;;;2064506;28;20229;-75
2021/07/08 02:52:59;;;;;;;1.03;0.70;;;15.30;99.90;;;;;;2064624;28;20386;-75
2021/07/08 02:54:00;;;;;;;0.30;0.30;;;15.30;99.90;;;;;;2072870;28;20185;-76
2021/07/08 02:55:01;;;;;;;0.60;0.60;;;15.30;99.90;;;;;;2056439;28;20438;-74
2021/07/08 02:56:02;;;;;;;0.37;0.37;;;15.40;99.90;;;;;;2054925;28;20179;-75
2021/07/08 02:57:03;;;;;;;0.77;0.50;;;15.40;99.90;;;;;;2064387;28;20210;-75
2021/07/08 02:58:04;;;;;;;0.68;0.68;;;15.40;99.90;;;;;;2072584;28;20679;-75
2021/07/08 02:59:05;;;;;;;0.55;0.55;;;15.40;99.90;;;;;;2072596;28;20264;-76
2021/07/08 03:00:09;;;;;;;0.63;0.60;;;15.40;99.90;;;;;;2064246;28;20568;-76
2021/07/08 03:01:10;;;;;;;0.40;0.40;;;15.50;99.90;;;;;;2072726;28;20345;-76
2021/07/08 03:02:11;;;;;;;0.40;0.40;;;15.50;99.90;;;;;;2072636;28;20181;-75
2021/07/08 03:03:12;;;;;;;0.83;0.83;;;15.50;99.90;;;;;;2064568;28;20185;-75
2021/07/08 03:04:12;;;;;;;0.63;0.63;;;15.50;99.90;;;;;;2056525;28;20191;-76
2021/07/08 03:05:14;;;;;;;0.40;0.40;;;15.50;99.90;;;;;;2064539;28;20185;-75
2021/07/08 03:06:15;;;;;;;0.63;0.60;;;15.50;99.90;;;;;;2064272;28;20603;-75
2021/07/08 03:07:17;;;;;;;0.60;0.60;;;15.50;99.90;;;;;;2064450;28;20274;-75
2021/07/08 03:08:18;;;;;;;0.45;0.45;;;15.50;99.90;;;;;;2072523;28;20920;-75
2021/07/08 03:09:18;;;;;;;0.70;0.70;;;15.50;99.90;;;;;;2075911;28;20181;-76
2021/07/08 03:10:23;;;;;;;0.70;0.70;;;15.50;99.90;;;;;;2080544;28;20185;-75
2021/07/08 03:11:23;;;;;;;0.55;0.52;;;15.60;99.90;;;;;;2064373;28;20189;-75
2021/07/08 03:12:24;;;;;;;0.50;0.50;;;15.60;99.90;;;;;;2056460;28;20179;-75
2021/07/08 03:13:25;;;;;;;0.97;0.80;;;15.60;99.90;;;;;;2064300;28;20177;-75
2021/07/08 03:14:25;;;;;;;0.77;0.77;;;15.60;99.90;;;;;;2072607;28;20180;-75
2021/07/08 03:15:26;;;;;;;0.30;0.30;;;15.60;99.90;;;;;;2072515;28;20174;-75
2021/07/08 03:16:27;;;;;;;0.40;0.40;;;15.50;99.90;;;;;;2072486;28;20751;-75
2021/07/08 03:17:28;;;;;;;0.40;0.40;;;15.50;99.90;;;;;;2064343;28;20178;-75
2021/07/08 03:18:28;;;;;;;0.37;0.37;;;15.50;99.90;;;;;;2056523;28;20317;-75
2021/07/08 03:19:29;;;;;;;0.67;0.67;;;15.40;99.90;;;;;;2072380;28;20256;-75
2021/07/08 03:20:34;;;;;;;0.40;0.40;;;15.40;99.90;;;;;;2072357;28;20184;-75
2021/07/08 03:21:35;;;;;;;0.30;0.30;;;15.50;99.90;;;;;;2064865;28;20700;-76
2021/07/08 03:22:36;;;;;;;0.33;0.33;;;15.50;99.90;;;;;;2064597;28;20202;-75
2021/07/08 03:23:36;;;;;;;0.40;0.40;;;15.40;99.90;;;;;;2072421;28;20707;-75
2021/07/08 03:24:37;;;;;;;0.50;0.50;;;15.40;99.90;;;;;;2081263;28;20197;-75
2021/07/08 03:25:38;;;;;;;0.40;0.40;;;15.30;99.90;;;;;;2064069;28;20223;-75
2021/07/08 03:26:38;;;;;;;0.30;0.30;;;15.40;99.90;;;;;;2064412;28;20198;-75
2021/07/08 03:27:40;;;;;;;0.40;0.40;;;15.40;99.90;;;;;;2081188;28;20178;-75
2021/07/08 03:28:41;;;;;;;0.30;0.30;;;15.40;99.90;;;;;;2072515;28;20173;-76
2021/07/08 03:29:42;;;;;;;0.50;0.50;;;15.30;99.90;;;;;;2064171;28;20479;-75
2021/07/08 03:30:42;;;;;;;0.40;0.40;;;15.40;99.90;;;;;;2064223;28;20214;-75
2021/07/08 03:31:43;;;;;;;0.30;0.30;;;15.30;99.90;;;;;;2072498;28;20177;-75
2021/07/08 03:32:44;;;;;;;0.33;0.33;;;15.30;99.90;;;;;;2064333;28;20664;-75
2021/07/08 03:33:45;;;;;;;0.50;0.50;;;15.30;99.90;;;;;;2064354;28;20261;-75
2021/07/08 03:34:46;;;;;;;0.65;0.65;;;15.30;99.90;;;;;;2072352;28;20249;-76
2021/07/08 03:35:47;;;;;;;0.63;0.63;;;15.30;99.90;;;;;;2064190;28;20183;-75
2021/07/08 03:36:47;;;;;;;0.60;0.60;;;15.30;99.90;;;;;;2064330;28;20205;-75
2021/07/08 03:37:49;;;;;;;0.37;0.37;;;15.30;99.90;;;;;;2072404;28;20903;-75
2021/07/08 03:38:49;;;;;;;0.47;0.47;;;15.30;99.90;;;;;;2072452;28;20178;-76
2021/07/08 03:39:51;;;;;;;0.67;0.67;;;15.30;99.90;;;;;;2072949;28;20552;-75
2021/07/08 03:40:52;;;;;;;0.30;0.30;;;15.30;99.90;;;;;;2081445;28;20651;-75
2021/07/08 03:41:53;;;;;;;0.57;0.57;;;15.30;99.90;;;;;;2072357;28;20185;-74
2021/07/08 03:42:53;;;;;;;0.30;0.30;;;15.20;99.90;;;;;;2064260;28;20595;-76
2021/07/08 03:43:54;;;;;;;0.27;0.27;;;15.20;99.90;;;;;;2064325;28;20209;-75
2021/07/08 03:44:55;;;;;;;0.40;0.40;;;15.20;99.90;;;;;;2072462;28;20181;-75
2021/07/08 03:45:56;;;;;;;0.40;0.40;;;15.20;99.90;;;;;;2072215;28;20194;-75
2021/07/08 03:46:56;;;;;;;0.40;0.40;;;15.20;99.90;;;;;;2064242;28;20202;-76
2021/07/08 03:47:58;;;;;;;0.60;0.53;;;15.20;99.90;;;;;;2064207;28;20170;-75
2021/07/08 03:48:59;;;;;;;0.35;0.30;;;15.20;99.90;;;;;;2064389;28;20182;-75
2021/07/08 03:49:59;;;;;;;0.27;0.27;;;15.20;99.90;;;;;;2064115;28;20185;-75
2021/07/08 03:51:00;;;;;;;0.37;0.37;;;15.20;99.90;;;;;;2072119;28;20389;-75
2021/07/08 03:52:01;;;;;;;0.50;0.50;;;15.20;99.90;;;;;;2081126;28;20208;-75
2021/07/08 03:53:01;;;;;;;0.63;0.60;;;15.20;99.90;;;;;;2080919;28;20192;-75
2021/07/08 03:54:02;;;;;;;0.60;0.60;;;15.20;99.90;;;;;;2072313;28;20182;-75
2021/07/08 03:55:04;;;;;;;0.50;0.50;;;15.20;99.90;;;;;;2064025;28;20190;-75
2021/07/08 03:56:04;;;;;;;0.30;0.30;;;15.10;99.90;;;;;;2064221;28;20189;-75
2021/07/08 03:57:05;;;;;;;1.70;0.97;;;15.20;99.90;;;;;;2063907;28;20709;-75
2021/07/08 03:58:06;;;;;;;1.30;0.85;;;15.20;99.90;;;;;;2064105;28;20186;-76
2021/07/08 03:59:07;;;;;;;0.50;0.50;;;15.20;99.90;;;;;;2063992;28;20221;-76
2021/07/08 04:00:08;;;;;;;0.60;0.40;;;15.20;99.90;;;;;;2072075;28;20602;-75
2021/07/08 04:01:09;;;;;;;0.47;0.47;;;15.20;99.90;;;;;;2081314;28;20181;-74
2021/07/08 04:02:10;;;;;;;0.40;0.40;;;15.10;99.90;;;;;;2081236;28;20205;-75
2021/07/08 04:03:16;;;;;;;0.47;0.47;;;15.20;99.90;;;;;;2081127;28;20185;-75
2021/07/08 04:04:17;;;;;;;0.40;0.40;;;15.10;99.90;;;;;;2072479;28;20170;-75
2021/07/08 04:05:17;;;;;;;0.40;0.40;;;15.10;99.90;;;;;;2072167;28;20228;-75
2021/07/08 04:06:18;;;;;;;0.43;0.43;;;15.10;99.90;;;;;;2071855;28;20209;-75
2021/07/08 04:07:19;;;;;;;0.53;0.53;;;15.10;99.90;;;;;;2063923;28;20253;-75
2021/07/08 04:08:20;;;;;;;0.33;0.33;;;15.10;99.90;;;;;;2072198;28;20814;-75
2021/07/08 04:09:20;;;;;;;0.40;0.40;;;15.10;99.90;;;;;;2072100;28;20235;-76
2021/07/08 04:10:21;;;;;;;0.33;0.33;;;15.10;99.90;;;;;;2063887;28;20170;-75
2021/07/08 04:11:22;;;;;;;0.63;0.63;;;15.10;99.90;;;;;;2055897;28;20274;-75
2021/07/08 04:12:23;;;;;;;0.37;0.37;;;15.10;99.90;;;;;;2064085;28;20209;-76
2021/07/08 04:13:24;;;;;;;0.50;0.50;;;15.10;99.90;;;;;;2072138;28;20224;-75
2021/07/08 04:14:24;;;;;;;0.50;0.50;;;15.10;99.90;;;;;;2072191;28;20189;-75
2021/07/08 04:15:26;;;;;;;0.40;0.40;;;15.20;99.90;;;;;;2072111;28;20181;-75
2021/07/08 04:16:27;;;;;;;0.38;0.38;;;15.20;99.90;;;;;;2064140;28;20754;-76
2021/07/08 04:17:27;;;;;;;0.80;0.80;;;15.20;99.90;;;;;;2064021;28;20197;-76
2021/07/08 04:18:28;;;;;;;0.43;0.43;;;15.10;99.90;;;;;;2063929;28;20314;-74
2021/07/08 04:19:28;;;;;;;0.53;0.53;;;15.10;99.90;;;;;;2072096;28;20292;-75
2021/07/08 04:20:30;;;;;;;0.50;0.50;;;15.20;99.90;;;;;;2071923;28;20185;-75
2021/07/08 04:21:31;;;;;;;0.43;0.43;;;15.10;99.90;;;;;;2064087;28;20190;-76
2021/07/08 04:22:32;;;;;;;0.60;0.60;;;15.10;99.90;;;;;;2064141;28;20209;-75
2021/07/08 04:23:32;;;;;;;0.70;0.70;;;15.10;99.90;;;;;;2072005;28;20228;-75
2021/07/08 04:24:33;;;;;;;0.73;0.70;;;15.10;99.90;;;;;;2072187;28;20184;-75
2021/07/08 04:25:35;;;;;;;0.40;0.40;;;15.20;99.90;;;;;;2072021;28;20234;-75
2021/07/08 04:26:36;;;;;;;17.75;0.82;;;15.20;99.90;;;;;;2072192;28;20193;-74
2021/07/08 04:27:37;;;;;;;0.50;0.50;;;15.20;99.90;;;;;;2063993;28;20185;-75
2021/07/08 04:28:38;;;;;;;0.47;0.47;;;15.10;99.90;;;;;;2072137;28;20169;-75
2021/07/08 04:29:38;;;;;;;0.30;0.30;;;15.10;99.90;;;;;;2080887;28;20235;-75
2021/07/08 04:30:41;;;;;;;2.33;0.60;;;15.20;99.90;;;;;;2080676;28;20250;-76
2021/07/08 04:31:42;;;;;;;0.30;0.30;;;15.20;99.90;;;;;;2072086;28;20181;-75
2021/07/08 04:32:43;;;;;;;0.50;0.50;;;15.20;99.90;;;;;;2072178;28;20562;-76
2021/07/08 04:33:46;;;;;;;0.90;0.77;;;15.20;99.90;;;;;;2072025;28;20177;-75
2021/07/08 04:34:47;;;;;;;0.40;0.40;;;15.30;99.90;;;;;;2064387;28;20178;-75
2021/07/08 04:35:48;;;;;;;1.10;1.03;;;15.30;99.90;;;;;;2064292;28;20254;-75
2021/07/08 04:36:49;;;;;;;0.30;0.30;;;15.30;99.90;;;;;;2072172;28;20189;-75
2021/07/08 04:37:49;;;;;;;0.47;0.47;;;15.30;99.90;;;;;;2080999;28;20701;-76
2021/07/08 04:38:53;;;;;;;0.57;0.57;;;15.30;99.90;;;;;;2072256;28;20468;-75
2021/07/08 04:39:56;;;;;;;1.75;0.82;;;15.30;99.90;;;;;;2064478;28;20711;-75
2021/07/08 04:40:56;;;;;;;0.30;0.30;;;15.30;99.90;;;;;;2064407;28;20186;-76
2021/07/08 04:41:57;;;;;;;0.60;0.60;;;15.30;99.90;;;;;;2072320;28;20181;-77
2021/07/08 04:42:58;;;;;;;0.47;0.40;;;15.30;99.90;;;;;;2071986;28;20184;-75
2021/07/08 04:43:59;;;;;;;0.50;0.50;;;15.30;99.90;;;;;;2072225;28;20201;-75
2021/07/08 04:44:59;;;;;;;0.30;0.30;;;15.30;99.90;;;;;;2071997;28;20672;-76
2021/07/08 04:46:00;;;;;;;0.50;0.50;;;15.40;99.90;;;;;;2080830;28;20199;-75
2021/07/08 04:47:01;;;;;;;2.97;0.50;;;15.40;99.90;;;;;;2080682;28;20666;-75
2021/07/08 04:48:03;;;;;;;0.50;0.50;;;15.30;99.90;;;;;;2080809;28;20176;-76
2021/07/08 04:49:04;;;;;;;0.47;0.47;;;15.30;99.90;;;;;;2071776;28;20766;-75
2021/07/08 04:50:09;;;;;;;0.67;0.67;;;15.30;99.90;;;;;;2071828;28;20455;-75
2021/07/08 04:51:11;;;;;;;0.50;0.50;;;15.30;99.90;;;;;;2071882;28;20217;-75
2021/07/08 04:52:12;;;;;;;0.87;0.87;;;15.30;99.90;;;;;;2056020;28;20189;-75
2021/07/08 04:53:16;;;;;;;0.40;0.40;;;15.20;99.90;;;;;;2064023;28;20508;-75
2021/07/08 04:54:17;;;;;;;0.50;0.50;;;15.30;99.90;;;;;;2080967;28;20188;-75
2021/07/08 04:55:21;;;;;;;1.77;1.17;;;15.30;99.90;;;;;;2071885;28;20649;-75
2021/07/08 04:56:22;;;;;;;0.60;0.60;;;15.30;99.90;;;;;;2060671;28;20274;-76
2021/07/08 04:57:22;;;;;;;0.67;0.63;;;15.30;99.90;;;;;;2063811;28;20859;-75
2021/07/08 04:58:23;;;;;;;0.63;0.63;;;15.30;99.90;;;;;;2063878;28;20188;-75
2021/07/08 04:59:24;;;;;;;0.97;0.60;;;15.30;99.90;;;;;;2063902;28;20664;-75
2021/07/08 05:00:25;;;;;;;0.77;0.77;;;15.40;99.90;;;;;;2072396;28;20536;-75
2021/07/08 05:01:26;;;;;;;0.63;0.63;;;15.40;99.90;;;;;;2063803;28;20178;-76
2021/07/08 05:02:27;;;;;;;0.40;0.40;;;15.40;99.90;;;;;;2055899;28;20175;-75
2021/07/08 05:03:27;;;;;;;0.45;0.45;;;15.40;99.90;;;;;;2063780;28;20639;-75
2021/07/08 05:04:28;;;;;;;0.40;0.40;;;15.40;99.90;;;;;;2071957;28;20220;-76
2021/07/08 05:05:29;;;;;;;0.50;0.50;;;15.40;99.90;;;;;;2063742;28;20194;-75
2021/07/08 05:06:29;;;;;;;0.50;0.50;;;15.50;99.90;;;;;;2063594;28;20182;-75
2021/07/08 05:07:30;;;;;;;0.70;0.70;;;15.50;99.90;;;;;;2071970;28;20182;-76
2021/07/08 05:08:31;;;;;;;0.40;0.40;;;15.40;99.90;;;;;;2072037;28;20209;-75
2021/07/08 05:09:32;;;;;;;1.27;0.83;;;15.40;99.90;;;;;;2073341;28;20269;-75
2021/07/08 05:10:33;;;;;;;0.60;0.60;;;15.50;99.90;;;;;;2071680;28;20232;-75
2021/07/08 05:11:33;;;;;;;0.60;0.60;;;15.50;99.90;;;;;;2063546;28;20269;-75
2021/07/08 05:12:34;;;;;;;0.20;0.20;;;15.50;99.90;;;;;;2065441;28;20711;-75
2021/07/08 05:13:35;;;;;;;0.90;0.90;;;15.50;99.90;;;;;;2073412;28;20664;-75
2021/07/08 05:14:36;;;;;;;0.80;0.47;;;15.50;99.90;;;;;;2065536;28;20202;-75
2021/07/08 05:15:37;;;;;;;0.50;0.50;;;15.60;99.90;;;;;;2073453;28;20177;-75
2021/07/08 05:16:37;;;;;;;0.30;0.30;;;15.60;99.90;;;;;;2073462;28;20199;-76
2021/07/08 05:17:38;;;;;;;0.50;0.50;;;15.60;99.90;;;;;;2065218;28;20452;-74
2021/07/08 05:18:39;;;;;;;0.50;0.50;;;15.60;99.90;;;;;;2065459;28;20206;-75
2021/07/08 05:19:40;;;;;;;0.57;0.57;;;15.60;99.90;;;;;;2065357;28;20178;-75